createdAt,value
2019-03-24T00:01:41.253Z,101.30
2019-03-24T00:04:03.803Z,106.23
2019-03-24T00:06:31.055Z,100.60
2019-03-24T00:08:58.630Z,99.07
2019-03-24T00:11:25.995Z,93.07
2019-03-24T00:13:53.295Z,100.53
2019-03-24T00:16:20.550Z,101.03
2019-03-24T00:18:48.050Z,93.67
2019-03-24T00:21:15.282Z,100.97
2019-03-24T00:23:42.547Z,96.13
2019-03-24T00:26:09.774Z,93.70
2019-03-24T00:28:37.016Z,92.93
2019-03-24T00:31:04.318Z,98.17
2019-03-24T00:33:31.564Z,96.00
2019-03-24T00:35:58.802Z,101.30
2019-03-24T00:38:26.042Z,96.70
2019-03-24T00:40:53.511Z,90.43
2019-03-24T00:43:20.757Z,92.50
2019-03-24T00:45:47.981Z,92.20
2019-03-24T00:48:15.574Z,97.00
2019-03-24T00:50:42.859Z,104.40
2019-03-24T00:53:10.105Z,105.87
2019-03-24T00:55:37.634Z,106.47
2019-03-24T00:58:04.901Z,103.30
2019-03-24T01:00:37.007Z,109.53
2019-03-24T01:03:04.239Z,113.83
2019-03-24T01:05:31.873Z,105.73
2019-03-24T01:07:59.114Z,103.87
2019-03-24T01:10:26.358Z,112.43
2019-03-24T01:12:53.573Z,104.10
2019-03-24T01:15:21.170Z,106.97
2019-03-24T01:17:48.735Z,106.27
2019-03-24T01:20:15.987Z,110.30
2019-03-24T01:22:43.239Z,106.53
2019-03-24T01:25:10.799Z,102.53
2019-03-24T01:27:38.042Z,103.20
2019-03-24T01:30:07.237Z,100.97
2019-03-24T01:32:34.800Z,98.47
2019-03-24T01:35:02.359Z,100.80
2019-03-24T01:37:29.915Z,96.73
2019-03-24T01:39:57.125Z,97.87
2019-03-24T01:42:24.359Z,90.77
2019-03-24T01:44:51.578Z,100.87
2019-03-24T01:47:19.746Z,93.33
2019-03-24T01:49:46.957Z,95.73
2019-03-24T01:52:14.445Z,91.90
2019-03-24T01:54:41.684Z,99.50
2019-03-24T01:57:08.898Z,97.43
2019-03-24T01:59:36.135Z,94.03
2019-03-24T02:02:03.338Z,93.17
2019-03-24T02:04:30.914Z,99.03
2019-03-24T02:06:58.137Z,96.17
2019-03-24T02:09:25.718Z,96.13
2019-03-24T02:11:52.938Z,102.03
2019-03-24T02:14:20.201Z,100.23
2019-03-24T02:16:47.416Z,102.43
2019-03-24T02:19:14.673Z,96.43
2019-03-24T02:21:42.178Z,102.03
2019-03-24T02:24:09.415Z,95.80
2019-03-24T02:26:36.887Z,98.20
2019-03-24T02:29:04.139Z,101.03
2019-03-24T02:31:31.596Z,93.17
2019-03-24T02:33:58.833Z,96.37
2019-03-24T02:36:26.076Z,99.80
2019-03-24T02:38:53.556Z,96.53
2019-03-24T02:41:21.112Z,98.43
2019-03-24T02:43:48.357Z,98.77
2019-03-24T02:46:24.117Z,95.30
2019-03-24T02:48:44.519Z,101.23
2019-03-24T02:51:11.832Z,99.07
2019-03-24T02:53:39.066Z,97.13
2019-03-24T02:56:06.978Z,94.90
2019-03-24T02:58:34.214Z,91.93
2019-03-24T03:01:01.797Z,98.87
2019-03-24T03:03:29.347Z,93.27
2019-03-24T03:05:56.581Z,98.97
2019-03-24T03:08:23.802Z,93.97
2019-03-24T03:10:51.038Z,91.63
2019-03-24T03:13:18.295Z,95.43
2019-03-24T03:15:45.596Z,99.43
2019-03-24T03:18:12.835Z,98.50
2019-03-24T03:20:40.058Z,90.83
2019-03-24T03:23:07.402Z,89.37
2019-03-24T03:25:34.619Z,90.70
2019-03-24T03:28:01.826Z,82.13
2019-03-24T03:30:29.073Z,78.80
2019-03-24T03:32:56.568Z,74.30
2019-03-24T03:35:24.128Z,77.17
2019-03-24T03:37:51.684Z,74.83
2019-03-24T03:40:19.273Z,71.80
2019-03-24T03:42:46.595Z,71.93
2019-03-24T03:45:15.367Z,67.67
2019-03-24T03:47:42.952Z,66.47
2019-03-24T03:50:10.355Z,70.07
2019-03-24T03:52:37.555Z,66.83
2019-03-24T03:55:05.703Z,63.53
2019-03-24T03:57:32.929Z,73.40
2019-03-24T04:00:00.454Z,67.53
2019-03-24T04:02:28.192Z,66.40
2019-03-24T04:04:55.447Z,65.10
2019-03-24T04:07:22.697Z,63.07
2019-03-24T04:09:49.910Z,62.27
2019-03-24T04:12:17.123Z,65.47
2019-03-24T04:14:44.346Z,63.80
2019-03-24T04:17:11.907Z,64.17
2019-03-24T04:19:39.462Z,64.03
2019-03-24T04:22:07.027Z,68.57
2019-03-24T04:24:34.248Z,63.60
2019-03-24T04:27:01.492Z,69.17
2019-03-24T04:29:28.718Z,66.30
2019-03-24T04:31:55.930Z,70.13
2019-03-24T04:34:23.483Z,63.50
2019-03-24T04:36:51.039Z,62.77
2019-03-24T04:39:18.600Z,64.27
2019-03-24T04:41:45.813Z,70.40
2019-03-24T04:44:13.103Z,61.40
2019-03-24T04:46:40.344Z,63.17
2019-03-24T04:49:07.558Z,65.33
2019-03-24T04:51:34.790Z,64.67
2019-03-24T04:54:02.012Z,62.70
2019-03-24T04:56:29.246Z,66.67
2019-03-24T04:58:56.720Z,62.67
2019-03-24T05:01:24.278Z,61.60
2019-03-24T05:03:51.826Z,70.13
2019-03-24T05:06:19.522Z,58.57
2019-03-24T05:08:46.739Z,65.80
2019-03-24T05:11:13.968Z,63.07
2019-03-24T05:13:41.212Z,62.33
2019-03-24T05:16:08.427Z,60.40
2019-03-24T05:18:35.651Z,68.10
2019-03-24T05:21:03.213Z,69.77
2019-03-24T05:23:30.766Z,67.50
2019-03-24T05:25:58.000Z,57.43
2019-03-24T05:28:25.572Z,65.03
2019-03-24T05:30:53.131Z,67.27
2019-03-24T05:33:20.344Z,66.47
2019-03-24T05:35:47.569Z,60.00
2019-03-24T05:38:14.803Z,63.03
2019-03-24T05:40:42.342Z,66.33
2019-03-24T05:43:09.555Z,63.13
2019-03-24T05:45:36.785Z,59.67
2019-03-24T05:48:04.034Z,58.63
2019-03-24T05:50:31.273Z,61.03
2019-03-24T05:52:58.805Z,60.93
2019-03-24T05:55:26.038Z,58.50
2019-03-24T05:57:53.265Z,65.47
2019-03-24T06:00:20.491Z,58.80
2019-03-24T06:02:48.014Z,62.37
2019-03-24T06:05:15.248Z,67.53
2019-03-24T06:07:42.460Z,58.90
2019-03-24T06:10:09.769Z,68.77
2019-03-24T06:12:37.000Z,56.53
2019-03-24T06:15:05.753Z,61.40
2019-03-24T06:17:32.974Z,57.90
2019-03-24T06:20:00.311Z,60.20
2019-03-24T06:22:27.770Z,55.23
2019-03-24T06:24:54.990Z,57.00
2019-03-24T06:27:22.471Z,57.57
2019-03-24T06:29:50.028Z,61.27
2019-03-24T06:32:17.272Z,60.60
2019-03-24T06:34:44.499Z,55.43
2019-03-24T06:37:12.100Z,60.70
2019-03-24T06:39:39.325Z,64.53
2019-03-24T06:42:06.548Z,56.47
2019-03-24T06:44:34.046Z,58.57
2019-03-24T06:47:01.506Z,64.10
2019-03-24T06:49:29.068Z,60.30
2019-03-24T06:51:56.287Z,58.30
2019-03-24T06:54:23.526Z,58.57
2019-03-24T06:56:50.738Z,58.00
2019-03-24T06:59:17.974Z,63.30
2019-03-24T07:01:45.526Z,65.67
2019-03-24T07:04:12.758Z,62.73
2019-03-24T07:06:39.980Z,63.17
2019-03-24T07:09:07.240Z,62.43
2019-03-24T07:11:34.471Z,63.47
2019-03-24T07:14:01.742Z,62.23
2019-03-24T07:16:28.958Z,69.10
2019-03-24T07:18:56.194Z,64.00
2019-03-24T07:21:23.402Z,62.60
2019-03-24T07:23:50.658Z,64.07
2019-03-24T07:26:17.864Z,65.70
2019-03-24T07:28:45.390Z,69.87
2019-03-24T07:31:12.638Z,61.33
2019-03-24T07:33:39.845Z,71.40
2019-03-24T07:36:07.086Z,68.67
2019-03-24T07:38:34.613Z,76.10
2019-03-24T07:41:01.874Z,66.27
2019-03-24T07:43:29.086Z,70.53
2019-03-24T07:45:56.666Z,68.83
2019-03-24T07:48:23.901Z,69.13
2019-03-24T07:50:52.775Z,79.30
2019-03-24T07:53:20.017Z,75.83
2019-03-24T07:55:47.237Z,74.90
2019-03-24T07:58:14.785Z,79.40
2019-03-24T08:00:42.051Z,72.27
2019-03-24T08:03:09.581Z,80.00
2019-03-24T08:05:37.157Z,80.70
2019-03-24T08:08:04.358Z,80.10
2019-03-24T08:10:31.593Z,86.87
2019-03-24T08:12:58.806Z,90.20
2019-03-24T08:15:26.052Z,102.63
2019-03-24T08:17:53.263Z,92.43
2019-03-24T08:20:20.744Z,96.97
2019-03-24T08:22:48.303Z,95.67
2019-03-24T08:25:15.549Z,95.60
2019-03-24T08:27:42.762Z,96.77
2019-03-24T08:30:10.156Z,101.17
2019-03-24T08:32:37.386Z,98.97
2019-03-24T08:35:05.379Z,100.13
2019-03-24T08:37:32.944Z,101.27
2019-03-24T08:40:00.241Z,101.20
2019-03-24T08:42:27.685Z,96.47
2019-03-24T08:44:54.902Z,99.53
2019-03-24T08:47:22.465Z,98.73
2019-03-24T08:49:50.015Z,93.43
2019-03-24T08:52:17.603Z,82.90
2019-03-24T08:54:45.125Z,87.97
2019-03-24T08:57:12.692Z,89.07
2019-03-24T08:59:39.915Z,87.83
2019-03-24T09:02:07.395Z,86.30
2019-03-24T09:04:34.616Z,85.23
2019-03-24T09:07:02.222Z,80.50
2019-03-24T09:09:29.765Z,81.37
2019-03-24T09:11:56.986Z,76.10
2019-03-24T09:14:24.238Z,76.17
2019-03-24T09:16:51.536Z,75.50
2019-03-24T09:19:18.755Z,74.40
2019-03-24T09:21:46.334Z,65.30
2019-03-24T09:24:13.892Z,67.40
2019-03-24T09:26:41.454Z,62.47
2019-03-24T09:29:08.669Z,60.93
2019-03-24T09:31:35.914Z,63.00
2019-03-24T09:34:03.145Z,64.77
2019-03-24T09:36:30.370Z,65.57
2019-03-24T09:38:57.581Z,62.53
2019-03-24T09:41:24.821Z,62.73
2019-03-24T09:43:52.030Z,61.73
2019-03-24T09:46:19.282Z,59.97
2019-03-24T09:48:46.511Z,52.83
2019-03-24T09:51:14.071Z,58.00
2019-03-24T09:53:41.353Z,55.30
2019-03-24T09:56:08.585Z,57.17
2019-03-24T09:58:35.817Z,56.30
2019-03-24T10:01:03.044Z,51.07
2019-03-24T10:03:30.286Z,60.23
2019-03-24T10:05:57.779Z,51.17
2019-03-24T10:08:25.037Z,53.43
2019-03-24T10:10:52.251Z,53.13
2019-03-24T10:13:20.413Z,48.87
2019-03-24T10:15:47.648Z,54.77
2019-03-24T10:18:14.895Z,45.47
2019-03-24T10:20:42.114Z,53.83
2019-03-24T10:23:09.349Z,53.27
2019-03-24T10:25:36.584Z,50.50
2019-03-24T10:28:03.810Z,52.57
2019-03-24T10:30:31.060Z,50.47
2019-03-24T10:32:58.589Z,57.27
2019-03-24T10:35:26.125Z,49.40
2019-03-24T10:37:53.365Z,54.23
2019-03-24T10:40:28.476Z,46.90
2019-03-24T10:42:49.585Z,46.50
2019-03-24T10:45:17.072Z,45.13
2019-03-24T10:47:44.367Z,40.77
2019-03-24T10:50:14.441Z,43.93
2019-03-24T10:52:41.867Z,33.27
2019-03-24T10:55:10.378Z,39.80
2019-03-24T10:57:37.934Z,34.77
2019-03-24T11:00:06.732Z,37.23
2019-03-24T11:02:33.964Z,29.53
2019-03-24T11:05:01.450Z,37.80
2019-03-24T11:07:28.696Z,34.67
2019-03-24T11:09:55.909Z,39.57
2019-03-24T11:12:23.511Z,31.80
2019-03-24T11:14:50.737Z,33.67
2019-03-24T11:17:17.957Z,36.63
2019-03-24T11:19:45.196Z,33.97
2019-03-24T11:22:12.708Z,32.30
2019-03-24T11:24:39.949Z,28.43
2019-03-24T11:27:08.099Z,30.97
2019-03-24T11:29:35.322Z,30.53
2019-03-24T11:32:02.868Z,35.63
2019-03-24T11:34:30.127Z,28.90
2019-03-24T11:36:57.373Z,28.27
2019-03-24T11:39:24.606Z,28.53
2019-03-24T11:41:52.171Z,28.67
2019-03-24T11:44:19.448Z,25.80
2019-03-24T11:49:34.736Z,31.33
2019-03-24T11:52:01.959Z,33.43
2019-03-24T11:54:29.173Z,32.63
2019-03-24T11:56:56.750Z,28.70
2019-03-24T11:59:23.982Z,30.40
2019-03-24T12:01:51.239Z,30.10
2019-03-24T12:04:18.526Z,29.83
2019-03-24T12:06:45.760Z,27.87
2019-03-24T12:09:13.321Z,28.70
2019-03-24T12:11:40.576Z,25.90
2019-03-24T12:14:07.793Z,26.67
2019-03-24T12:16:35.055Z,27.97
2019-03-24T12:19:02.268Z,25.00
2019-03-24T12:21:29.507Z,23.57
2019-03-24T12:23:57.027Z,22.87
2019-03-24T12:26:24.250Z,22.27
2019-03-24T12:28:51.478Z,18.97
2019-03-24T12:31:18.991Z,25.13
2019-03-24T12:33:46.546Z,20.50
2019-03-24T12:36:13.778Z,21.33
2019-03-24T12:38:41.262Z,20.63
2019-03-24T12:41:08.814Z,19.40
2019-03-24T12:43:36.367Z,20.07
2019-03-24T12:46:03.606Z,19.10
2019-03-24T12:48:30.818Z,22.87
2019-03-24T12:50:58.038Z,20.83
2019-03-24T12:53:25.691Z,19.73
2019-03-24T12:55:52.898Z,17.20
2019-03-24T12:58:20.134Z,17.13
2019-03-24T13:00:47.646Z,19.63
2019-03-24T13:03:14.897Z,18.77
2019-03-24T13:05:42.398Z,19.27
2019-03-24T13:08:16.079Z,17.93
2019-03-24T13:10:43.918Z,14.00
2019-03-24T13:13:11.416Z,16.33
2019-03-24T13:15:38.646Z,19.60
2019-03-24T13:18:05.887Z,18.90
2019-03-24T13:20:38.370Z,20.40
2019-03-24T13:23:02.432Z,20.33
2019-03-24T13:25:30.577Z,16.87
2019-03-24T13:27:57.833Z,17.70
2019-03-24T13:30:25.119Z,17.90
2019-03-24T13:32:52.660Z,10.17
2019-03-24T13:35:19.905Z,11.37
2019-03-24T13:37:47.110Z,17.37
2019-03-24T13:40:14.353Z,13.70
2019-03-24T13:42:41.659Z,13.00
2019-03-24T13:45:08.946Z,12.70
2019-03-24T13:47:36.174Z,10.67
2019-03-24T13:50:04.509Z,12.90
2019-03-24T13:52:32.098Z,11.87
2019-03-24T13:54:59.330Z,14.23
2019-03-24T13:57:26.555Z,13.03
2019-03-24T13:59:54.063Z,10.83
2019-03-24T14:02:21.637Z,15.07
2019-03-24T14:04:48.888Z,12.73
2019-03-24T14:07:16.430Z,9.90
2019-03-24T14:09:43.999Z,13.33
2019-03-24T14:12:11.311Z,13.33
2019-03-24T14:14:38.801Z,11.90
2019-03-24T14:17:06.034Z,9.10
2019-03-24T14:19:33.255Z,9.73
2019-03-24T14:22:00.498Z,11.87
2019-03-24T14:24:27.736Z,8.50
2019-03-24T14:26:55.278Z,9.33
2019-03-24T14:29:22.519Z,9.93
2019-03-24T14:31:49.750Z,12.13
2019-03-24T14:34:16.974Z,11.03
2019-03-24T14:36:44.202Z,7.40
2019-03-24T14:39:11.723Z,11.40
2019-03-24T14:41:39.283Z,11.20
2019-03-24T14:44:06.521Z,8.40
2019-03-24T14:46:33.729Z,9.33
2019-03-24T14:49:01.482Z,6.37
2019-03-24T14:51:28.682Z,7.57
2019-03-24T14:53:55.905Z,7.10
2019-03-24T14:56:23.403Z,6.33
2019-03-24T14:58:50.967Z,11.47
2019-03-24T15:01:18.195Z,8.57
2019-03-24T15:03:45.683Z,7.37
2019-03-24T15:06:12.923Z,8.90
2019-03-24T15:08:40.145Z,8.07
2019-03-24T15:11:07.373Z,9.77
2019-03-24T15:13:34.609Z,12.20
2019-03-24T15:16:01.823Z,7.67
2019-03-24T15:18:29.059Z,8.63
2019-03-24T15:21:05.161Z,9.80
2019-03-24T15:23:25.238Z,13.50
2019-03-24T15:25:52.453Z,6.93
2019-03-24T15:28:20.963Z,7.33
2019-03-24T15:30:48.514Z,8.97
2019-03-24T15:33:15.717Z,9.10
2019-03-24T15:35:42.926Z,8.80
2019-03-24T15:38:10.165Z,10.93
2019-03-24T15:40:37.394Z,7.77
2019-03-24T15:43:04.624Z,8.80
2019-03-24T15:45:32.143Z,10.13
2019-03-24T15:47:59.426Z,12.63
2019-03-24T15:50:26.922Z,8.90
2019-03-24T15:52:54.158Z,12.07
2019-03-24T15:55:21.390Z,11.57
2019-03-24T15:57:48.613Z,7.43
2019-03-24T16:00:17.688Z,7.40
2019-03-24T16:02:44.893Z,7.53
2019-03-24T16:05:12.130Z,9.23
2019-03-24T16:07:39.399Z,6.93
2019-03-24T16:10:06.715Z,9.67
2019-03-24T16:12:33.962Z,8.03
2019-03-24T16:15:01.153Z,7.37
2019-03-24T16:17:28.382Z,7.97
2019-03-24T16:19:55.891Z,6.07
2019-03-24T16:22:24.021Z,6.37
2019-03-24T16:24:51.246Z,9.40
2019-03-24T16:27:18.773Z,4.43
2019-03-24T16:29:46.328Z,5.90
2019-03-24T16:32:13.565Z,6.47
2019-03-24T16:34:40.762Z,6.13
2019-03-24T16:37:07.963Z,6.90
2019-03-24T16:39:35.198Z,4.47
2019-03-24T16:42:02.402Z,4.73
2019-03-24T16:44:29.605Z,3.57
2019-03-24T16:46:56.855Z,3.17
2019-03-24T16:49:24.098Z,4.93
2019-03-24T16:51:51.589Z,7.03
2019-03-24T16:54:18.836Z,3.07
2019-03-24T16:56:46.093Z,10.03
2019-03-24T16:59:13.321Z,7.03
2019-03-24T17:01:40.805Z,5.70
2019-03-24T17:04:08.033Z,7.43
2019-03-24T17:06:35.246Z,8.77
2019-03-24T17:09:02.486Z,7.93
2019-03-24T17:11:30.013Z,6.00
2019-03-24T17:13:57.243Z,6.60
2019-03-24T17:16:24.709Z,6.10
2019-03-24T17:18:52.282Z,7.17
2019-03-24T17:21:19.485Z,6.43
2019-03-24T17:23:46.718Z,12.07
2019-03-24T17:26:13.933Z,10.40
2019-03-24T17:28:41.160Z,6.63
2019-03-24T17:31:08.374Z,10.07
2019-03-24T17:33:35.606Z,7.13
2019-03-24T17:36:03.138Z,9.03
2019-03-24T17:38:30.357Z,4.57
2019-03-24T17:40:57.574Z,7.40
2019-03-24T17:43:25.095Z,7.63
2019-03-24T17:45:52.323Z,10.90
2019-03-24T17:48:19.529Z,8.13
2019-03-24T17:50:46.838Z,9.23
2019-03-24T17:53:14.030Z,9.37
2019-03-24T17:55:41.553Z,7.47
2019-03-24T17:58:08.786Z,9.00
2019-03-24T18:00:37.530Z,6.23
2019-03-24T18:03:04.749Z,6.73
2019-03-24T18:05:31.979Z,8.13
2019-03-24T18:07:59.450Z,7.07
2019-03-24T18:10:26.915Z,7.17
2019-03-24T18:12:54.462Z,7.33
2019-03-24T18:15:22.022Z,9.80
2019-03-24T18:17:49.258Z,6.73
2019-03-24T18:20:18.002Z,5.20
2019-03-24T18:22:45.515Z,5.40
2019-03-24T18:25:12.726Z,8.87
2019-03-24T18:27:40.108Z,5.17
2019-03-24T18:30:08.857Z,4.67
2019-03-24T18:32:36.107Z,7.97
2019-03-24T18:35:04.109Z,4.83
2019-03-24T18:37:31.332Z,6.67
2019-03-24T18:39:58.538Z,8.80
2019-03-24T18:42:27.598Z,6.03
2019-03-24T18:44:54.718Z,11.20
2019-03-24T18:47:21.930Z,10.77
2019-03-24T18:49:49.171Z,6.17
2019-03-24T18:52:22.561Z,5.97
2019-03-24T18:54:45.925Z,8.03
2019-03-24T18:57:13.135Z,5.13
2019-03-24T18:59:40.347Z,11.37
2019-03-24T19:02:07.565Z,6.77
2019-03-24T19:04:34.923Z,7.83
2019-03-24T19:07:02.149Z,15.80
2019-03-24T19:09:29.354Z,7.23
2019-03-24T19:11:56.590Z,13.63
2019-03-24T19:14:23.820Z,7.60
2019-03-24T19:16:51.302Z,7.67
2019-03-24T19:19:18.855Z,8.87
2019-03-24T19:21:46.061Z,8.57
2019-03-24T19:24:13.675Z,6.03
2019-03-24T19:26:40.889Z,9.27
2019-03-24T19:29:08.123Z,6.27
2019-03-24T19:31:35.360Z,5.83
2019-03-24T19:34:02.876Z,8.60
2019-03-24T19:36:30.101Z,6.40
2019-03-24T19:38:57.586Z,11.50
2019-03-24T19:41:25.143Z,5.83
2019-03-24T19:43:52.603Z,6.87
2019-03-24T19:46:19.814Z,5.20
2019-03-24T19:48:47.298Z,8.17
2019-03-24T19:51:14.505Z,8.60
2019-03-24T19:53:41.726Z,8.13
2019-03-24T19:56:08.955Z,8.50
2019-03-24T19:58:36.514Z,9.80
2019-03-24T20:01:03.822Z,12.20
2019-03-24T20:03:31.045Z,10.93
2019-03-24T20:05:58.250Z,14.63
2019-03-24T20:08:25.827Z,7.47
2019-03-24T20:10:53.386Z,8.47
2019-03-24T20:13:20.837Z,9.53
2019-03-24T20:15:48.068Z,8.33
2019-03-24T20:18:15.290Z,7.33
2019-03-24T20:20:42.798Z,9.73
2019-03-24T20:23:10.353Z,8.40
2019-03-24T20:25:37.565Z,8.03
2019-03-24T20:28:04.830Z,7.63
2019-03-24T20:30:32.128Z,11.47
2019-03-24T20:32:59.420Z,7.67
2019-03-24T20:35:27.079Z,11.07
2019-03-24T20:37:54.447Z,8.43
2019-03-24T20:40:21.977Z,8.90
2019-03-24T20:42:49.258Z,11.00
2019-03-24T20:45:16.563Z,7.17
2019-03-24T20:47:44.267Z,11.00
2019-03-24T20:50:11.830Z,12.60
2019-03-24T20:52:39.670Z,11.33
2019-03-24T20:55:07.783Z,9.40
2019-03-24T20:57:35.075Z,9.73
2019-03-24T21:00:02.690Z,9.37
2019-03-24T21:02:29.971Z,9.37
2019-03-24T21:04:57.351Z,11.83
2019-03-24T21:07:24.642Z,8.20
2019-03-24T21:09:51.858Z,10.97
2019-03-24T21:12:19.139Z,8.33
2019-03-24T21:14:46.631Z,7.27
2019-03-24T21:17:13.961Z,9.73
2019-03-24T21:19:41.342Z,8.00
2019-03-24T21:22:09.306Z,12.33
2019-03-24T21:24:36.664Z,9.70
2019-03-24T21:27:04.250Z,7.77
2019-03-24T21:29:33.846Z,12.13
2019-03-24T21:32:01.129Z,10.10
2019-03-24T21:34:28.682Z,12.10
2019-03-24T21:36:56.014Z,7.17
2019-03-24T21:39:23.452Z,8.83
2019-03-24T21:41:51.093Z,8.07
2019-03-24T21:44:18.370Z,5.77
2019-03-24T21:46:45.855Z,8.93
2019-03-24T21:49:13.435Z,12.07
2019-03-24T21:51:40.795Z,11.20
2019-03-24T21:54:08.093Z,14.73
2019-03-24T21:56:35.670Z,12.10
2019-03-24T21:59:02.919Z,8.50
2019-03-24T22:01:31.086Z,13.17
2019-03-24T22:03:58.975Z,11.40
2019-03-24T22:06:27.722Z,7.97
2019-03-24T22:08:55.225Z,9.10
2019-03-24T22:11:22.618Z,9.00
2019-03-24T22:13:50.000Z,10.87
2019-03-24T22:16:17.371Z,18.37
2019-03-24T22:18:44.736Z,12.73
2019-03-24T22:21:16.213Z,9.40
2019-03-24T22:23:52.275Z,11.13
2019-03-24T22:26:13.271Z,9.17
2019-03-24T22:28:40.601Z,10.93
2019-03-24T22:31:08.389Z,9.33
2019-03-24T22:33:35.852Z,10.27
2019-03-24T22:36:03.177Z,11.27
2019-03-24T22:38:30.664Z,13.07
2019-03-24T22:40:58.260Z,12.90
2019-03-24T22:43:25.985Z,8.70
2019-03-24T22:45:53.622Z,11.83
2019-03-24T22:48:21.263Z,15.80
2019-03-24T22:50:49.076Z,12.93
2019-03-24T22:53:16.444Z,13.30
2019-03-24T22:55:44.002Z,7.37
2019-03-24T22:58:11.489Z,11.80
2019-03-24T23:00:46.602Z,13.90
2019-03-24T23:03:13.917Z,17.83
2019-03-24T23:05:41.158Z,11.10
2019-03-24T23:08:08.398Z,14.00
2019-03-24T23:10:35.635Z,9.67
2019-03-24T23:13:02.847Z,9.53
2019-03-24T23:15:30.438Z,13.57
2019-03-24T23:17:57.666Z,10.97
2019-03-24T23:20:25.234Z,9.10
2019-03-24T23:22:52.479Z,8.30
2019-03-24T23:25:19.687Z,10.63
2019-03-24T23:27:47.187Z,13.23
2019-03-24T23:30:14.485Z,10.07
2019-03-24T23:32:41.727Z,12.07
2019-03-24T23:35:08.926Z,9.90
2019-03-24T23:37:36.150Z,14.07
2019-03-24T23:40:04.513Z,12.40
2019-03-24T23:42:31.755Z,11.63
2019-03-24T23:44:58.990Z,20.67
2019-03-24T23:47:26.275Z,17.57
2019-03-24T23:49:53.529Z,12.80
2019-03-24T23:52:21.031Z,14.77
2019-03-24T23:54:48.298Z,9.10
2019-03-24T23:57:15.536Z,11.33
2019-03-24T23:59:43.110Z,12.70
